createdAt,value
2022-08-17T00:00:43.625Z,100473.88
2022-08-17T00:03:05.671Z,100475.34
2022-08-17T00:05:07.639Z,100481.30
2022-08-17T00:07:09.546Z,100481.08
2022-08-17T00:09:11.197Z,100483.76
2022-08-17T00:11:25.330Z,100482.70
2022-08-17T00:13:31.820Z,100483.77
2022-08-17T00:15:33.471Z,100482.17
2022-08-17T00:17:35.239Z,100483.66
2022-08-17T00:19:36.872Z,100483.02
2022-08-17T00:22:32.747Z,100481.44
2022-08-17T00:24:19.785Z,100474.77
2022-08-17T00:26:43.162Z,100470.34
2022-08-17T00:28:44.494Z,100473.21
2022-08-17T00:30:53.554Z,100471.13
2022-08-17T00:33:14.482Z,100469.89
2022-08-17T00:35:23.223Z,100473.54
2022-08-17T00:37:24.921Z,100480.25
2022-08-17T00:39:26.619Z,100477.48
2022-08-17T00:41:29.425Z,100473.30
2022-08-17T00:43:37.789Z,100473.28
2022-08-17T00:45:39.488Z,100464.63
2022-08-17T00:47:41.672Z,100465.51
2022-08-17T00:49:43.337Z,100462.49
2022-08-17T00:51:53.378Z,100459.66
2022-08-17T00:54:00.055Z,100457.95
2022-08-17T00:56:05.499Z,100455.38
2022-08-17T00:58:08.054Z,100451.09
2022-08-17T01:00:18.002Z,100451.26
2022-08-17T01:02:20.165Z,100453.19
2022-08-17T01:04:22.928Z,100461.56
2022-08-17T01:06:25.026Z,100462.40
2022-08-17T01:08:31.101Z,100458.25
2022-08-17T01:10:58.556Z,100453.39
2022-08-17T01:13:03.457Z,100454.15
2022-08-17T01:15:06.059Z,100452.50
2022-08-17T01:17:09.187Z,100445.84
2022-08-17T01:19:41.009Z,100446.00
2022-08-17T01:21:54.916Z,100444.00
2022-08-17T01:23:56.690Z,100442.80
2022-08-17T01:26:01.789Z,100442.54
2022-08-17T01:28:03.977Z,100438.04
2022-08-17T01:30:58.541Z,100435.88
2022-08-17T01:32:32.546Z,100430.05
2022-08-17T01:34:42.663Z,100430.20
2022-08-17T01:37:05.715Z,100430.29
2022-08-17T01:39:12.362Z,100432.41
2022-08-17T01:41:16.422Z,100438.40
2022-08-17T01:43:22.853Z,100447.34
2022-08-17T01:45:28.393Z,100450.77
2022-08-17T01:47:30.114Z,100447.11
2022-08-17T01:49:32.944Z,100445.00
2022-08-17T01:51:34.664Z,100441.73
2022-08-17T01:53:40.066Z,100445.31
2022-08-17T01:55:47.158Z,100438.86
2022-08-17T01:57:48.892Z,100443.58
2022-08-17T01:59:50.575Z,100449.60
2022-08-17T02:01:52.732Z,100452.05
2022-08-17T02:03:59.766Z,100457.50
2022-08-17T02:06:05.193Z,100461.14
2022-08-17T02:08:07.494Z,100459.59
2022-08-17T02:10:19.906Z,100460.04
2022-08-17T02:12:47.940Z,100460.77
2022-08-17T02:14:46.933Z,100462.89
2022-08-17T02:16:48.608Z,100465.24
2022-08-17T02:18:50.353Z,100467.45
2022-08-17T02:20:52.590Z,100463.90
2022-08-17T02:22:54.288Z,100472.14
2022-08-17T02:24:59.675Z,100470.11
2022-08-17T02:27:03.991Z,100471.71
2022-08-17T02:29:06.008Z,100472.73
2022-08-17T02:31:08.847Z,100474.54
2022-08-17T02:33:11.527Z,100474.58
2022-08-17T02:35:14.548Z,100477.96
2022-08-17T02:37:21.104Z,100480.03
2022-08-17T02:39:22.845Z,100482.02
2022-08-17T02:41:24.519Z,100483.02
2022-08-17T02:43:27.544Z,100481.87
2022-08-17T02:45:29.325Z,100484.27
2022-08-17T02:47:31.375Z,100486.27
2022-08-17T02:49:32.975Z,100493.55
2022-08-17T02:51:37.910Z,100496.60
2022-08-17T02:53:41.017Z,100497.47
2022-08-17T02:55:45.977Z,100500.77
2022-08-17T02:57:48.356Z,100498.61
2022-08-17T02:59:51.293Z,100500.36
2022-08-17T03:01:53.738Z,100506.05
2022-08-17T03:03:57.172Z,100506.29
2022-08-17T03:05:59.027Z,100510.89
2022-08-17T03:08:00.810Z,100507.13
2022-08-17T03:10:02.565Z,100506.15
2022-08-17T03:12:09.696Z,100505.84
2022-08-17T03:14:11.563Z,100506.08
2022-08-17T03:16:14.415Z,100512.20
2022-08-17T03:18:24.855Z,100512.45
2022-08-17T03:20:29.237Z,100509.69
2022-08-17T03:22:47.786Z,100509.00
2022-08-17T03:24:50.930Z,100512.21
2022-08-17T03:26:52.603Z,100507.59
2022-08-17T03:28:54.259Z,100507.83
2022-08-17T03:30:56.119Z,100499.28
2022-08-17T03:33:00.231Z,100498.05
2022-08-17T03:35:01.947Z,100498.50
2022-08-17T03:37:08.161Z,100500.64
2022-08-17T03:39:10.177Z,100497.08
2022-08-17T03:41:11.832Z,100496.93
2022-08-17T03:43:14.072Z,100496.86
2022-08-17T03:45:42.385Z,100501.55
2022-08-17T03:48:10.842Z,100506.38
2022-08-17T03:50:19.152Z,100513.38
2022-08-17T03:52:39.404Z,100518.14
2022-08-17T03:55:01.077Z,100519.73
2022-08-17T03:57:07.373Z,100522.36
2022-08-17T03:59:20.945Z,100523.16
2022-08-17T04:01:24.812Z,100524.39
2022-08-17T04:03:26.507Z,100523.94
2022-08-17T04:05:28.249Z,100524.41
2022-08-17T04:07:31.497Z,100528.81
2022-08-17T04:09:34.768Z,100527.84
2022-08-17T04:11:37.239Z,100521.04
2022-08-17T04:13:42.771Z,100520.20
2022-08-17T04:15:44.465Z,100515.80
2022-08-17T04:17:58.354Z,100520.42
2022-08-17T04:20:00.012Z,100520.99
2022-08-17T04:22:01.770Z,100519.20
2022-08-17T04:24:04.592Z,100524.55
2022-08-17T04:26:06.317Z,100525.12
2022-08-17T04:28:16.303Z,100519.08
2022-08-17T04:30:18.191Z,100519.33
2022-08-17T04:32:24.851Z,100517.92
2022-08-17T04:34:41.669Z,100516.13
2022-08-17T04:36:47.987Z,100514.02
2022-08-17T04:38:52.144Z,100510.91
2022-08-17T04:41:13.369Z,100510.46
2022-08-17T04:43:18.852Z,100514.77
2022-08-17T04:45:20.659Z,100515.48
2022-08-17T04:47:24.251Z,100519.19
2022-08-17T04:49:26.665Z,100522.07
2022-08-17T04:51:54.501Z,100517.50
2022-08-17T04:54:00.316Z,100513.08
2022-08-17T04:56:02.436Z,100508.36
2022-08-17T04:58:07.452Z,100510.33
2022-08-17T05:00:11.017Z,100514.44
2022-08-17T05:02:13.989Z,100514.02
2022-08-17T05:04:34.389Z,100513.48
2022-08-17T05:06:37.244Z,100513.67
2022-08-17T05:08:39.382Z,100511.23
2022-08-17T05:10:45.159Z,100511.00
2022-08-17T05:12:48.501Z,100507.65
2022-08-17T05:14:50.264Z,100508.21
2022-08-17T05:16:51.887Z,100507.95
2022-08-17T05:18:53.708Z,100511.27
2022-08-17T05:20:55.932Z,100512.04
2022-08-17T05:23:01.207Z,100506.88
2022-08-17T05:25:03.097Z,100509.94
2022-08-17T05:27:06.534Z,100511.95
2022-08-17T05:29:08.533Z,100515.82
2022-08-17T05:31:11.487Z,100515.76
2022-08-17T05:33:18.032Z,100519.27
2022-08-17T05:35:19.751Z,100525.79
2022-08-17T05:37:22.409Z,100529.52
2022-08-17T05:39:24.153Z,100526.63
2022-08-17T05:41:25.909Z,100527.15
2022-08-17T05:43:33.269Z,100523.47
2022-08-17T05:45:54.251Z,100520.28
2022-08-17T05:47:57.633Z,100523.41
2022-08-17T05:49:59.533Z,100526.06
2022-08-17T05:52:07.579Z,100527.60
2022-08-17T05:54:46.536Z,100530.25
2022-08-17T05:57:04.187Z,100528.47
2022-08-17T05:59:55.902Z,100532.83
2022-08-17T06:02:09.803Z,100537.30
2022-08-17T06:04:31.357Z,100542.23
2022-08-17T06:07:05.516Z,100546.70
2022-08-17T06:09:33.925Z,100547.71
2022-08-17T06:11:44.283Z,100552.67
2022-08-17T06:14:10.650Z,100557.67
2022-08-17T06:16:33.465Z,100555.74
2022-08-17T06:19:05.338Z,100549.27
2022-08-17T06:21:08.718Z,100555.14
2022-08-17T06:23:29.676Z,100557.40
2022-08-17T06:26:03.824Z,100562.92
2022-08-17T06:28:09.338Z,100569.61
2022-08-17T06:30:20.346Z,100568.12
2022-08-17T06:32:22.953Z,100569.29
2022-08-17T06:34:24.678Z,100566.82
2022-08-17T06:36:40.004Z,100570.38
2022-08-17T06:39:05.422Z,100570.58
2022-08-17T06:41:31.803Z,100572.17
2022-08-17T06:43:45.076Z,100570.16
2022-08-17T06:46:11.649Z,100573.73
2022-08-17T06:48:24.601Z,100572.33
2022-08-17T06:50:36.519Z,100573.09
2022-08-17T06:52:52.779Z,100574.45
2022-08-17T06:55:18.165Z,100579.07
2022-08-17T06:57:25.342Z,100579.61
2022-08-17T06:59:55.013Z,100578.61
2022-08-17T07:01:56.518Z,100577.92
2022-08-17T07:04:13.097Z,100576.92
2022-08-17T07:06:17.621Z,100571.27
2022-08-17T07:08:29.981Z,100570.35
2022-08-17T07:11:17.308Z,100569.22
2022-08-17T07:13:38.655Z,100569.79
2022-08-17T07:15:42.647Z,100573.39
2022-08-17T07:17:48.380Z,100580.18
2022-08-17T07:19:52.423Z,100576.92
2022-08-17T07:22:31.122Z,100575.45
2022-08-17T07:24:58.361Z,100570.13
2022-08-17T07:27:10.720Z,100570.80
2022-08-17T07:29:16.772Z,100570.85
2022-08-17T07:31:20.453Z,100579.20
2022-08-17T07:33:28.110Z,100580.64
2022-08-17T07:35:37.628Z,100576.36
2022-08-17T07:37:53.429Z,100572.88
2022-08-17T07:39:59.717Z,100571.31
2022-08-17T07:42:20.795Z,100570.32
2022-08-17T07:44:23.177Z,100573.58
2022-08-17T07:46:54.385Z,100573.48
2022-08-17T07:49:16.050Z,100576.27
2022-08-17T07:51:28.174Z,100578.27
2022-08-17T07:53:32.394Z,100583.99
2022-08-17T07:55:40.735Z,100584.16
2022-08-17T07:57:42.982Z,100585.88
2022-08-17T08:00:00.019Z,100588.16
2022-08-17T08:02:31.093Z,100595.34
2022-08-17T08:05:00.573Z,100599.79
2022-08-17T08:07:07.949Z,100601.94
2022-08-17T08:09:32.801Z,100607.20
2022-08-17T08:11:40.126Z,100610.73
2022-08-17T08:13:48.131Z,100613.46
2022-08-17T08:15:55.396Z,100613.96
2022-08-17T08:18:01.878Z,100616.20
2022-08-17T08:20:51.283Z,100614.95
2022-08-17T08:22:41.169Z,100615.25
2022-08-17T08:25:02.615Z,100613.57
2022-08-17T08:27:27.295Z,100614.86
2022-08-17T08:29:38.144Z,100617.79
2022-08-17T08:31:58.410Z,100619.44
2022-08-17T08:34:07.029Z,100618.16
2022-08-17T08:37:14.295Z,100622.81
2022-08-17T08:39:14.416Z,100628.41
2022-08-17T08:41:29.738Z,100633.99
2022-08-17T08:43:55.466Z,100639.73
2022-08-17T08:46:06.027Z,100644.39
2022-08-17T08:48:57.060Z,100646.31
2022-08-17T08:50:54.545Z,100651.34
2022-08-17T08:53:11.541Z,100650.95
2022-08-17T08:55:18.570Z,100652.70
2022-08-17T08:57:29.058Z,100658.80
2022-08-17T08:59:58.313Z,100659.69
2022-08-17T09:02:00.225Z,100661.32
2022-08-17T09:04:24.327Z,100662.59
2022-08-17T09:06:48.153Z,100661.89
2022-08-17T09:09:10.498Z,100665.03
2022-08-17T09:12:02.850Z,100659.52
2022-08-17T09:14:21.887Z,100668.36
2022-08-17T09:16:35.100Z,100666.00
2022-08-17T09:19:02.891Z,100667.08
2022-08-17T09:21:56.795Z,100663.23
2022-08-17T09:24:02.450Z,100664.04
2022-08-17T09:26:12.308Z,100669.70
2022-08-17T09:28:29.042Z,100676.84
2022-08-17T09:31:04.329Z,100680.18
2022-08-17T09:33:10.713Z,100685.80
2022-08-17T09:35:37.234Z,100689.61
2022-08-17T09:38:02.279Z,100691.04
2022-08-17T09:40:25.018Z,100692.38
2022-08-17T09:42:38.475Z,100696.06
2022-08-17T09:44:44.491Z,100697.92
2022-08-17T09:46:53.640Z,100694.84
2022-08-17T09:49:21.870Z,100694.56
2022-08-17T09:51:43.950Z,100691.96
2022-08-17T09:53:45.736Z,100693.54
2022-08-17T09:55:47.356Z,100697.58
2022-08-17T09:58:08.356Z,100698.48
2022-08-17T10:00:25.757Z,100700.43
2022-08-17T10:02:40.531Z,100703.16
2022-08-17T10:05:02.345Z,100708.48
2022-08-17T10:07:10.003Z,100710.64
2022-08-17T10:09:43.206Z,100707.69
2022-08-17T10:12:30.164Z,100710.15
2022-08-17T10:14:44.218Z,100707.27
2022-08-17T10:16:56.073Z,100711.86
2022-08-17T10:19:21.133Z,100714.80
2022-08-17T10:21:42.521Z,100710.36
2022-08-17T10:24:03.796Z,100709.18
2022-08-17T10:26:25.082Z,100707.77
2022-08-17T10:28:30.529Z,100709.38
2022-08-17T10:30:37.424Z,100710.33
2022-08-17T10:32:44.511Z,100707.02
2022-08-17T10:35:04.912Z,100704.38
2022-08-17T10:37:09.626Z,100705.44
2022-08-17T10:42:48.943Z,100704.23
2022-08-17T10:44:56.497Z,100706.90
2022-08-17T10:47:08.765Z,100704.11
2022-08-17T10:49:21.115Z,100699.77
2022-08-17T10:51:38.162Z,100695.63
2022-08-17T10:53:40.660Z,100693.91
2022-08-17T10:56:13.798Z,100695.27
2022-08-17T11:01:34.439Z,100689.66
2022-08-17T11:03:36.448Z,100682.94
2022-08-17T11:05:54.072Z,100682.46
2022-08-17T11:08:13.895Z,100682.58
2022-08-17T11:10:33.394Z,100682.79
2022-08-17T11:12:57.053Z,100678.91
2022-08-17T11:15:26.309Z,100680.16
2022-08-17T11:18:06.551Z,100679.19
2022-08-17T11:20:27.135Z,100683.23
2022-08-17T11:22:40.660Z,100679.70
2022-08-17T11:24:51.389Z,100682.95
2022-08-17T11:27:25.464Z,100681.27
2022-08-17T11:29:34.056Z,100677.18
2022-08-17T11:31:44.255Z,100674.61
2022-08-17T11:33:56.342Z,100672.95
2022-08-17T11:36:11.812Z,100671.48
2022-08-17T11:38:28.417Z,100669.55
2022-08-17T11:41:09.381Z,100672.98
2022-08-17T11:43:25.330Z,100672.18
2022-08-17T11:45:35.006Z,100675.23
2022-08-17T11:48:26.783Z,100675.73
2022-08-17T11:51:17.591Z,100677.40
2022-08-17T11:53:39.406Z,100673.40
2022-08-17T11:55:44.838Z,100677.34
2022-08-17T11:57:59.809Z,100676.04
2022-08-17T12:00:10.507Z,100679.00
2022-08-17T12:02:35.043Z,100674.27
2022-08-17T12:04:39.485Z,100674.18
2022-08-17T12:06:44.311Z,100672.02
2022-08-17T12:08:59.096Z,100674.60
2022-08-17T12:12:11.213Z,100673.89
2022-08-17T12:13:49.680Z,100673.14
2022-08-17T12:15:54.016Z,100673.64
2022-08-17T12:17:57.165Z,100672.06
2022-08-17T12:20:23.086Z,100671.03
2022-08-17T12:22:33.311Z,100669.16
2022-08-17T12:24:45.496Z,100667.06
2022-08-17T12:26:56.456Z,100670.02
2022-08-17T12:29:18.283Z,100666.65
2022-08-17T12:31:48.040Z,100668.05
2022-08-17T12:33:51.770Z,100673.02
2022-08-17T12:36:15.344Z,100669.23
2022-08-17T12:38:32.822Z,100673.14
2022-08-17T12:40:35.300Z,100678.41
2022-08-17T12:42:39.361Z,100682.13
2022-08-17T12:44:50.050Z,100684.15
2022-08-17T12:46:53.928Z,100687.44
2022-08-17T12:49:15.995Z,100687.20
2022-08-17T12:51:17.920Z,100685.91
2022-08-17T12:53:27.350Z,100691.48
2022-08-17T12:55:33.735Z,100690.23
2022-08-17T12:57:38.764Z,100694.54
2022-08-17T12:59:43.263Z,100689.56
2022-08-17T13:01:47.153Z,100691.04
2022-08-17T13:03:51.634Z,100687.34
2022-08-17T13:05:57.799Z,100685.30
2022-08-17T13:08:00.391Z,100685.73
2022-08-17T13:10:02.697Z,100682.20
2022-08-17T13:12:06.951Z,100689.29
2022-08-17T13:14:10.309Z,100690.00
2022-08-17T13:16:11.940Z,100696.76
2022-08-17T13:18:35.188Z,100702.81
2022-08-17T13:20:37.309Z,100701.50
2022-08-17T13:22:39.149Z,100697.13
2022-08-17T13:24:40.803Z,100699.10
2022-08-17T13:26:54.888Z,100694.26
2022-08-17T13:28:56.883Z,100693.17
2022-08-17T13:31:32.922Z,100688.33
2022-08-17T13:33:44.836Z,100685.14
2022-08-17T13:35:50.298Z,100685.45
2022-08-17T13:38:05.409Z,100685.55
2022-08-17T13:40:09.805Z,100683.16
2022-08-17T13:42:51.904Z,100685.98
2022-08-17T13:44:54.858Z,100683.48
2022-08-17T13:46:57.243Z,100684.71
2022-08-17T13:49:04.943Z,100685.48
2022-08-17T13:51:13.870Z,100688.71
2022-08-17T13:53:21.551Z,100691.00
2022-08-17T13:55:32.097Z,100692.65
2022-08-17T13:57:34.547Z,100691.42
2022-08-17T13:59:54.707Z,100692.23
2022-08-17T14:02:00.339Z,100691.63
2022-08-17T14:04:13.344Z,100696.45
2022-08-17T14:06:23.706Z,100696.84
2022-08-17T14:08:37.595Z,100698.75
2022-08-17T14:10:39.335Z,100693.35
2022-08-17T14:12:46.291Z,100692.70
2022-08-17T14:14:49.670Z,100696.90
2022-08-17T14:16:52.615Z,100692.77
2022-08-17T14:18:56.145Z,100690.23
2022-08-17T14:20:59.688Z,100689.19
2022-08-17T14:23:01.424Z,100688.86
2022-08-17T14:25:05.269Z,100682.96
2022-08-17T14:27:10.362Z,100685.71
2022-08-17T14:29:15.113Z,100680.65
2022-08-17T14:31:17.145Z,100682.56
2022-08-17T14:33:22.588Z,100683.42
2022-08-17T14:35:25.117Z,100679.91
2022-08-17T14:37:28.493Z,100673.82
2022-08-17T14:39:30.243Z,100674.42
2022-08-17T14:41:31.840Z,100674.41
2022-08-17T14:43:35.291Z,100674.23
2022-08-17T14:45:37.093Z,100676.86
2022-08-17T14:47:41.000Z,100678.53
2022-08-17T14:49:43.843Z,100677.12
2022-08-17T14:51:49.576Z,100679.11
2022-08-17T14:53:51.143Z,100674.83
2022-08-17T14:55:52.985Z,100668.15
2022-08-17T14:57:54.762Z,100670.45
2022-08-17T14:59:56.723Z,100671.42
2022-08-17T15:01:58.747Z,100670.03
2022-08-17T15:04:00.989Z,100669.14
2022-08-17T15:06:02.860Z,100671.20
2022-08-17T15:08:07.871Z,100670.95
2022-08-17T15:10:09.967Z,100673.77
2022-08-17T15:12:17.097Z,100673.90
2022-08-17T15:14:18.788Z,100673.13
2022-08-17T15:16:20.569Z,100676.17
2022-08-17T15:18:22.362Z,100673.33
2022-08-17T15:20:28.138Z,100675.79
2022-08-17T15:22:29.936Z,100674.40
2022-08-17T15:24:31.600Z,100677.79
2022-08-17T15:26:33.530Z,100675.98
2022-08-17T15:28:36.572Z,100675.61
2022-08-17T15:30:43.284Z,100680.03
2022-08-17T15:32:50.773Z,100677.62
2022-08-17T15:34:58.485Z,100678.08
2022-08-17T15:37:00.405Z,100675.55
2022-08-17T15:39:03.197Z,100685.54
2022-08-17T15:41:07.713Z,100685.74
2022-08-17T15:43:15.825Z,100686.27
2022-08-17T15:45:24.975Z,100682.70
2022-08-17T15:47:27.127Z,100677.70
2022-08-17T15:49:29.299Z,100677.92
2022-08-17T15:51:55.054Z,100675.06
2022-08-17T15:54:18.912Z,100678.42
2022-08-17T15:56:26.070Z,100674.29
2022-08-17T15:58:32.211Z,100671.57
2022-08-17T16:00:48.854Z,100673.46
2022-08-17T16:03:46.297Z,100680.69
2022-08-17T16:05:28.634Z,100687.81
2022-08-17T16:07:33.552Z,100691.46
2022-08-17T16:09:35.417Z,100689.27
2022-08-17T16:11:37.546Z,100687.95
2022-08-17T16:13:41.814Z,100690.71
2022-08-17T16:15:56.578Z,100696.51
2022-08-17T16:17:59.649Z,100695.86
2022-08-17T16:20:01.990Z,100698.64
2022-08-17T16:22:05.700Z,100700.59
2022-08-17T16:24:12.672Z,100713.25
2022-08-17T16:26:16.234Z,100715.48
2022-08-17T16:28:18.124Z,100720.65
2022-08-17T16:30:24.575Z,100720.94
2022-08-17T16:32:31.916Z,100727.29
2022-08-17T16:34:35.019Z,100726.77
2022-08-17T16:36:37.535Z,100729.40
2022-08-17T16:38:39.386Z,100729.51
2022-08-17T16:40:42.072Z,100732.38
2022-08-17T16:42:48.026Z,100735.89
2022-08-17T16:44:51.206Z,100741.98
2022-08-17T16:46:53.487Z,100742.23
2022-08-17T16:49:00.194Z,100741.07
2022-08-17T16:51:04.309Z,100741.09
2022-08-17T16:53:16.416Z,100744.05
2022-08-17T16:55:21.171Z,100749.52
2022-08-17T16:57:24.211Z,100750.46
2022-08-17T16:59:30.093Z,100754.65
2022-08-17T17:01:43.434Z,100753.24
2022-08-17T17:03:47.582Z,100752.11
2022-08-17T17:06:21.070Z,100751.48
2022-08-17T17:08:30.466Z,100752.70
2022-08-17T17:10:55.426Z,100758.88
2022-08-17T17:13:02.530Z,100757.13
2022-08-17T17:15:05.801Z,100759.42
2022-08-17T17:17:16.997Z,100757.39
2022-08-17T17:19:35.758Z,100763.09
2022-08-17T17:21:52.099Z,100766.90
2022-08-17T17:23:57.008Z,100769.81
2022-08-17T17:26:12.544Z,100767.90
2022-08-17T17:28:44.427Z,100771.08
2022-08-17T17:30:55.429Z,100765.16
2022-08-17T17:33:21.433Z,100763.39
2022-08-17T17:35:46.632Z,100765.10
2022-08-17T17:37:48.741Z,100769.32
2022-08-17T17:39:54.141Z,100777.47
2022-08-17T17:41:59.057Z,100787.55
2022-08-17T17:44:04.090Z,100793.42
2022-08-17T17:46:28.506Z,100796.69
2022-08-17T17:48:30.813Z,100795.40
2022-08-17T17:50:35.048Z,100801.34
2022-08-17T17:53:05.558Z,100803.23
2022-08-17T17:55:22.100Z,100802.62
2022-08-17T17:57:32.684Z,100800.68
2022-08-17T17:59:44.323Z,100807.14
2022-08-17T18:02:03.214Z,100806.52
2022-08-17T18:04:25.950Z,100809.52
2022-08-17T18:06:50.479Z,100808.85
2022-08-17T18:09:33.986Z,100815.61
2022-08-17T18:11:58.953Z,100823.92
2022-08-17T18:14:05.132Z,100830.82
2022-08-17T18:16:13.062Z,100837.50
2022-08-17T18:18:50.052Z,100837.83
2022-08-17T18:20:55.935Z,100846.48
2022-08-17T18:23:03.580Z,100847.37
2022-08-17T18:25:44.759Z,100851.68
2022-08-17T18:27:51.342Z,100855.80
2022-08-17T18:29:55.980Z,100858.97
2022-08-17T18:32:38.205Z,100857.69
2022-08-17T18:34:49.707Z,100860.48
2022-08-17T18:36:53.219Z,100862.44
2022-08-17T18:39:16.763Z,100865.45
2022-08-17T18:41:23.783Z,100866.84
2022-08-17T18:43:28.979Z,100859.92
2022-08-17T18:45:49.321Z,100858.55
2022-08-17T18:47:55.339Z,100863.90
2022-08-17T18:50:01.993Z,100865.77
2022-08-17T18:52:28.248Z,100858.70
2022-08-17T18:54:30.070Z,100861.16
2022-08-17T18:56:37.055Z,100865.57
2022-08-17T18:58:39.594Z,100874.27
2022-08-17T19:00:44.524Z,100870.75
2022-08-17T19:02:58.850Z,100871.35
2022-08-17T19:05:07.849Z,100873.36
2022-08-17T19:07:26.675Z,100872.09
2022-08-17T19:09:37.936Z,100876.33
2022-08-17T19:11:39.936Z,100881.73
2022-08-17T19:14:01.101Z,100876.73
2022-08-17T19:16:44.662Z,100868.29
2022-08-17T19:18:56.055Z,100865.20
2022-08-17T19:21:07.701Z,100863.89
2022-08-17T19:23:16.803Z,100868.19
2022-08-17T19:25:23.507Z,100869.79
2022-08-17T19:27:34.939Z,100873.74
2022-08-17T19:29:51.815Z,100875.38
2022-08-17T19:31:56.238Z,100873.14
2022-08-17T19:33:58.724Z,100877.98
2022-08-17T19:36:26.260Z,100882.39
2022-08-17T19:38:37.122Z,100883.53
2022-08-17T19:41:05.170Z,100887.05
2022-08-17T19:43:06.890Z,100889.17
2022-08-17T19:45:29.531Z,100892.27
2022-08-17T19:47:54.730Z,100891.50
2022-08-17T19:50:17.014Z,100894.82
2022-08-17T19:52:46.561Z,100905.59
2022-08-17T19:55:02.645Z,100912.73
2022-08-17T19:57:09.456Z,100915.10
2022-08-17T19:59:19.734Z,100916.88
2022-08-17T20:01:34.860Z,100920.16
2022-08-17T20:03:53.984Z,100925.15
2022-08-17T20:06:12.466Z,100928.42
2022-08-17T20:08:20.964Z,100929.45
2022-08-17T20:10:47.259Z,100929.05
2022-08-17T20:13:02.978Z,100929.16
2022-08-17T20:15:12.517Z,100926.81
2022-08-17T20:17:14.184Z,100927.19
2022-08-17T20:19:35.726Z,100926.30
2022-08-17T20:21:42.782Z,100926.27
2022-08-17T20:23:54.271Z,100932.30
2022-08-17T20:26:09.854Z,100932.60
2022-08-17T20:28:35.132Z,100932.71
2022-08-17T20:30:41.666Z,100937.48
2022-08-17T20:32:52.970Z,100938.48
2022-08-17T20:35:17.878Z,100936.29
2022-08-17T20:37:19.510Z,100932.61
2022-08-17T20:39:36.234Z,100935.36
2022-08-17T20:42:09.990Z,100937.34
2022-08-17T20:44:32.047Z,100943.17
2022-08-17T20:46:36.465Z,100940.48
2022-08-17T20:48:42.197Z,100944.86
2022-08-17T20:50:51.486Z,100944.06
2022-08-17T20:52:58.959Z,100943.64
2022-08-17T20:55:02.328Z,100949.69
2022-08-17T20:57:06.159Z,100952.41
2022-08-17T20:59:31.792Z,100954.95
2022-08-17T21:01:43.312Z,100955.05
2022-08-17T21:03:50.938Z,100957.56
2022-08-17T21:05:58.831Z,100955.29
2022-08-17T21:08:14.650Z,100957.86
2022-08-17T21:10:21.773Z,100958.30
2022-08-17T21:12:45.551Z,100961.61
2022-08-17T21:15:38.457Z,100956.23
2022-08-17T21:17:46.573Z,100960.28
2022-08-17T21:20:12.789Z,100964.48
2022-08-17T21:22:34.393Z,100967.84
2022-08-17T21:25:05.317Z,100972.71
2022-08-17T21:27:20.309Z,100974.27
2022-08-17T21:29:31.912Z,100979.13
2022-08-17T21:31:41.296Z,100978.44
2022-08-17T21:34:23.280Z,100977.98
2022-08-17T21:36:26.645Z,100975.82
2022-08-17T21:38:53.428Z,100980.45
2022-08-17T21:40:58.948Z,100977.61
2022-08-17T21:43:23.633Z,100972.71
2022-08-17T21:45:32.521Z,100976.10
2022-08-17T21:47:34.942Z,100978.79
2022-08-17T21:49:37.665Z,100982.84
2022-08-17T21:51:45.606Z,100990.05
2022-08-17T21:54:02.209Z,100998.92
2022-08-17T21:56:05.450Z,100999.80
2022-08-17T21:58:22.624Z,101003.80
2022-08-17T22:00:30.842Z,101001.35
2022-08-17T22:02:34.626Z,100998.77
2022-08-17T22:04:41.270Z,100992.58
2022-08-17T22:06:52.254Z,100993.54
2022-08-17T22:09:07.846Z,100992.63
2022-08-17T22:11:09.618Z,100989.61
2022-08-17T22:13:29.973Z,100986.60
2022-08-17T22:15:34.036Z,100982.09
2022-08-17T22:17:49.127Z,100985.85
2022-08-17T22:19:54.193Z,100985.55
2022-08-17T22:22:04.208Z,100986.23
2022-08-17T22:24:21.309Z,100987.30
2022-08-17T22:26:24.928Z,100984.91
2022-08-17T22:28:56.516Z,100990.13
2022-08-17T22:31:04.286Z,100986.98
2022-08-17T22:33:29.285Z,100982.80
2022-08-17T22:35:42.200Z,100978.71
2022-08-17T22:37:44.049Z,100980.88
2022-08-17T22:39:45.958Z,100981.11
2022-08-17T22:41:55.335Z,100981.72
2022-08-17T22:43:58.734Z,100983.53
2022-08-17T22:46:00.431Z,100985.56
2022-08-17T22:48:02.293Z,100988.05
2022-08-17T22:50:14.801Z,100991.15
2022-08-17T22:52:16.426Z,100991.67
2022-08-17T22:54:37.376Z,100987.92
2022-08-17T22:57:12.057Z,100986.23
2022-08-17T22:59:38.761Z,100986.46
2022-08-17T23:01:42.015Z,100988.29
2022-08-17T23:04:01.765Z,100988.68
2022-08-17T23:06:05.831Z,100990.95
2022-08-17T23:08:07.915Z,100993.73
2022-08-17T23:10:09.716Z,100989.11
2022-08-17T23:12:18.837Z,100987.42
2022-08-17T23:14:21.605Z,100988.52
2022-08-17T23:16:28.159Z,100989.80
2022-08-17T23:18:29.919Z,100988.83
2022-08-17T23:20:36.981Z,100990.26
2022-08-17T23:23:03.487Z,100991.42
2022-08-17T23:25:06.203Z,100996.02
2022-08-17T23:27:12.137Z,100996.27
2022-08-17T23:29:13.827Z,100998.45
2022-08-17T23:31:18.049Z,101004.07
2022-08-17T23:33:25.739Z,101004.29
2022-08-17T23:35:39.784Z,100998.53
2022-08-17T23:37:44.021Z,100999.23
2022-08-17T23:39:46.303Z,100992.98
2022-08-17T23:41:53.576Z,100991.80
2022-08-17T23:43:55.481Z,100989.70
2022-08-17T23:45:59.819Z,100987.48
2022-08-17T23:48:04.892Z,100989.29
2022-08-17T23:50:08.663Z,100989.12
2022-08-17T23:52:15.275Z,100993.79
2022-08-17T23:54:29.805Z,100992.63
2022-08-17T23:56:33.679Z,100988.67
2022-08-17T23:58:35.340Z,100987.13
